sensor_id;sensor_type;location;lat;lon;timestamp;pressure;altitude;pressure_sealevel;temperature;humidity
20077;BME280;12348;42.710;23.378;2023-05-11T00:01:19;95369.03;;;9.11;100.00
20077;BME280;12348;42.710;23.378;2023-05-11T00:03:45;95364.44;;;9.07;100.00
20077;BME280;12348;42.710;23.378;2023-05-11T00:06:12;95366.88;;;9.03;100.00
20077;BME280;12348;42.710;23.378;2023-05-11T00:08:39;95358.56;;;8.99;100.00
20077;BME280;12348;42.710;23.378;2023-05-11T00:11:06;95379.00;;;9.01;100.00
20077;BME280;12348;42.710;23.378;2023-05-11T00:13:33;95364.22;;;8.98;100.00
20077;BME280;12348;42.710;23.378;2023-05-11T00:16:00;95362.34;;;8.98;100.00
20077;BME280;12348;42.710;23.378;2023-05-11T00:18:29;95370.94;;;8.95;100.00
20077;BME280;12348;42.710;23.378;2023-05-11T00:20:56;95368.28;;;8.90;100.00
20077;BME280;12348;42.710;23.378;2023-05-11T00:23:23;95377.41;;;8.89;100.00
20077;BME280;12348;42.710;23.378;2023-05-11T00:25:50;95371.50;;;8.87;100.00
20077;BME280;12348;42.710;23.378;2023-05-11T00:28:16;95367.47;;;8.85;100.00
20077;BME280;12348;42.710;23.378;2023-05-11T00:30:43;95354.88;;;8.80;100.00
20077;BME280;12348;42.710;23.378;2023-05-11T00:33:10;95372.06;;;8.79;100.00
20077;BME280;12348;42.710;23.378;2023-05-11T00:35:38;95375.03;;;8.78;100.00
20077;BME280;12348;42.710;23.378;2023-05-11T00:38:05;95368.56;;;8.73;100.00
20077;BME280;12348;42.710;23.378;2023-05-11T00:40:33;95370.44;;;8.73;100.00
20077;BME280;12348;42.710;23.378;2023-05-11T00:42:59;95372.34;;;8.72;100.00
20077;BME280;12348;42.710;23.378;2023-05-11T00:45:26;95379.88;;;8.70;100.00
20077;BME280;12348;42.710;23.378;2023-05-11T00:47:53;95406.72;;;8.70;100.00
20077;BME280;12348;42.710;23.378;2023-05-11T00:50:20;95372.34;;;8.72;100.00
20077;BME280;12348;42.710;23.378;2023-05-11T00:52:49;95371.81;;;8.70;100.00
20077;BME280;12348;42.710;23.378;2023-05-11T00:55:18;95373.66;;;8.70;100.00
20077;BME280;12348;42.710;23.378;2023-05-11T00:57:45;95367.50;;;8.69;100.00
20077;BME280;12348;42.710;23.378;2023-05-11T01:00:12;95394.34;;;8.69;100.00
20077;BME280;12348;42.710;23.378;2023-05-11T01:02:40;95372.59;;;8.66;100.00
20077;BME280;12348;42.710;23.378;2023-05-11T01:05:08;95384.69;;;8.68;100.00
20077;BME280;12348;42.710;23.378;2023-05-11T01:07:39;95373.44;;;8.66;100.00
20077;BME280;12348;42.710;23.378;2023-05-11T01:10:14;95375.31;;;8.61;100.00
20077;BME280;12348;42.710;23.378;2023-05-11T01:12:48;95370.22;;;8.59;100.00
20077;BME280;12348;42.710;23.378;2023-05-11T01:15:23;95366.19;;;8.57;100.00
20077;BME280;12348;42.710;23.378;2023-05-11T01:17:55;95373.72;;;8.60;100.00
20077;BME280;12348;42.710;23.378;2023-05-11T01:20:25;95368.31;;;8.55;100.00
20077;BME280;12348;42.710;23.378;2023-05-11T01:23:22;95374.78;;;8.54;100.00
20077;BME280;12348;42.710;23.378;2023-05-11T01:26:09;95383.09;;;8.52;100.00
20077;BME280;12348;42.710;23.378;2023-05-11T01:31:40;95390.38;;;8.52;100.00
20077;BME280;12348;42.710;23.378;2023-05-11T01:34:12;95378.78;;;8.51;100.00
20077;BME280;12348;42.710;23.378;2023-05-11T01:36:43;95382.84;;;8.48;100.00
20077;BME280;12348;42.710;23.378;2023-05-11T01:39:15;95382.03;;;8.48;100.00
20077;BME280;12348;42.710;23.378;2023-05-11T01:41:44;95375.34;;;8.40;100.00
20077;BME280;12348;42.710;23.378;2023-05-11T01:44:17;95369.97;;;8.40;100.00
20077;BME280;12348;42.710;23.378;2023-05-11T01:46:47;95378.28;;;8.39;100.00
20077;BME280;12348;42.710;23.378;2023-05-11T01:49:16;95373.72;;;8.39;100.00
20077;BME280;12348;42.710;23.378;2023-05-11T01:51:45;95372.59;;;8.35;100.00
20077;BME280;12348;42.710;23.378;2023-05-11T01:54:16;95390.88;;;8.33;100.00
20077;BME280;12348;42.710;23.378;2023-05-11T01:56:46;95379.06;;;8.29;100.00
20077;BME280;12348;42.710;23.378;2023-05-11T01:59:16;95375.56;;;8.23;100.00
20077;BME280;12348;42.710;23.378;2023-05-11T02:01:43;95376.63;;;8.27;100.00
20077;BME280;12348;42.710;23.378;2023-05-11T02:04:12;95376.38;;;8.24;100.00
20077;BME280;12348;42.710;23.378;2023-05-11T02:06:42;95384.69;;;8.27;100.00
20077;BME280;12348;42.710;23.378;2023-05-11T02:09:10;95375.84;;;8.22;100.00
20077;BME280;12348;42.710;23.378;2023-05-11T02:11:39;95386.59;;;8.22;100.00
20077;BME280;12348;42.710;23.378;2023-05-11T02:14:07;95386.28;;;8.23;100.00
20077;BME280;12348;42.710;23.378;2023-05-11T02:16:36;95384.94;;;8.21;100.00
20077;BME280;12348;42.710;23.378;2023-05-11T02:19:05;95387.38;;;8.12;100.00
20077;BME280;12348;42.710;23.378;2023-05-11T02:21:35;95379.31;;;8.12;100.00
20077;BME280;12348;42.710;23.378;2023-05-11T02:24:04;95382.81;;;8.08;100.00
20077;BME280;12348;42.710;23.378;2023-05-11T02:26:31;95375.28;;;8.10;100.00
20077;BME280;12348;42.710;23.378;2023-05-11T02:28:58;95380.66;;;8.10;100.00
20077;BME280;12348;42.710;23.378;2023-05-11T02:31:27;95373.16;;;8.07;100.00
20077;BME280;12348;42.710;23.378;2023-05-11T02:33:59;95364.28;;;8.06;100.00
20077;BME280;12348;42.710;23.378;2023-05-11T02:36:32;95363.50;;;8.06;100.00
20077;BME280;12348;42.710;23.378;2023-05-11T02:39:06;95377.97;;;8.05;100.00
20077;BME280;12348;42.710;23.378;2023-05-11T02:41:40;95384.41;;;7.98;100.00
20077;BME280;12348;42.710;23.378;2023-05-11T02:44:13;95366.44;;;7.99;100.00
20077;BME280;12348;42.710;23.378;2023-05-11T02:46:41;95373.94;;;7.97;100.00
20077;BME280;12348;42.710;23.378;2023-05-11T02:49:10;95376.91;;;7.95;100.00
20077;BME280;12348;42.710;23.378;2023-05-11T02:51:42;95378.75;;;7.95;100.00
20077;BME280;12348;42.710;23.378;2023-05-11T02:54:12;95369.41;;;7.92;100.00
20077;BME280;12348;42.710;23.378;2023-05-11T02:56:41;95381.44;;;7.90;100.00
20077;BME280;12348;42.710;23.378;2023-05-11T02:59:09;95369.13;;;7.89;100.00
20077;BME280;12348;42.710;23.378;2023-05-11T03:01:37;95373.13;;;7.86;100.00
20077;BME280;12348;42.710;23.378;2023-05-11T03:04:05;95372.59;;;7.84;100.00
20077;BME280;12348;42.710;23.378;2023-05-11T03:06:32;95371.78;;;7.84;100.00
20077;BME280;12348;42.710;23.378;2023-05-11T03:08:59;95368.28;;;7.83;100.00
20077;BME280;12348;42.710;23.378;2023-05-11T03:11:28;95370.16;;;7.83;100.00
20077;BME280;12348;42.710;23.378;2023-05-11T03:13:56;95364.81;;;7.83;100.00
20077;BME280;12348;42.710;23.378;2023-05-11T03:16:23;95376.63;;;7.82;100.00
20077;BME280;12348;42.710;23.378;2023-05-11T03:18:51;95367.22;;;7.79;100.00
20077;BME280;12348;42.710;23.378;2023-05-11T03:21:20;95373.66;;;7.78;100.00
20077;BME280;12348;42.710;23.378;2023-05-11T03:23:49;95355.97;;;7.77;100.00
20077;BME280;12348;42.710;23.378;2023-05-11T03:26:17;95359.19;;;7.79;100.00
20077;BME280;12348;42.710;23.378;2023-05-11T03:28:47;95376.34;;;7.78;100.00
20077;BME280;12348;42.710;23.378;2023-05-11T03:31:17;95376.59;;;7.76;100.00
20077;BME280;12348;42.710;23.378;2023-05-11T03:33:44;95384.91;;;7.75;100.00
20077;BME280;12348;42.710;23.378;2023-05-11T03:36:11;95376.59;;;7.76;100.00
20077;BME280;12348;42.710;23.378;2023-05-11T03:38:39;95381.69;;;7.78;100.00
20077;BME280;12348;42.710;23.378;2023-05-11T03:41:07;95408.50;;;7.78;100.00
20077;BME280;12348;42.710;23.378;2023-05-11T03:43:34;95385.47;;;7.82;100.00
20077;BME280;12348;42.710;23.378;2023-05-11T03:46:03;95383.84;;;7.81;100.00
20077;BME280;12348;42.710;23.378;2023-05-11T03:48:30;95374.47;;;7.78;100.00
20077;BME280;12348;42.710;23.378;2023-05-11T03:50:58;95386.78;;;7.80;100.00
20077;BME280;12348;42.710;23.378;2023-05-11T03:53:25;95391.34;;;7.79;100.00
20077;BME280;12348;42.710;23.378;2023-05-11T03:55:52;95389.22;;;7.81;100.00
20077;BME280;12348;42.710;23.378;2023-05-11T03:58:19;95383.31;;;7.79;100.00
20077;BME280;12348;42.710;23.378;2023-05-11T04:00:46;95380.91;;;7.83;100.00
20077;BME280;12348;42.710;23.378;2023-05-11T04:03:14;95396.97;;;7.83;100.00
20077;BME280;12348;42.710;23.378;2023-05-11T04:05:41;95384.13;;;7.85;100.00
20077;BME280;12348;42.710;23.378;2023-05-11T04:08:08;95395.63;;;7.80;100.00
20077;BME280;12348;42.710;23.378;2023-05-11T04:10:35;95397.25;;;7.81;100.00
20077;BME280;12348;42.710;23.378;2023-05-11T04:13:03;95406.91;;;7.82;100.00
20077;BME280;12348;42.710;23.378;2023-05-11T04:15:30;95401.81;;;7.81;100.00
20077;BME280;12348;42.710;23.378;2023-05-11T04:17:57;95406.34;;;7.80;100.00
20077;BME280;12348;42.710;23.378;2023-05-11T04:20:25;95411.72;;;7.80;100.00
20077;BME280;12348;42.710;23.378;2023-05-11T04:22:51;95405.03;;;7.77;100.00
20077;BME280;12348;42.710;23.378;2023-05-11T04:25:19;95402.63;;;7.81;100.00
20077;BME280;12348;42.710;23.378;2023-05-11T04:27:45;95398.88;;;7.77;100.00
20077;BME280;12348;42.710;23.378;2023-05-11T04:30:13;95412.25;;;7.77;100.00
20077;BME280;12348;42.710;23.378;2023-05-11T04:32:40;95408.22;;;7.80;100.00
20077;BME280;12348;42.710;23.378;2023-05-11T04:35:07;95408.50;;;7.83;100.00
20077;BME280;12348;42.710;23.378;2023-05-11T04:37:35;95413.34;;;7.81;100.00
20077;BME280;12348;42.710;23.378;2023-05-11T04:40:03;95424.34;;;7.85;100.00
20077;BME280;12348;42.710;23.378;2023-05-11T04:42:30;95420.03;;;7.84;100.00
20077;BME280;12348;42.710;23.378;2023-05-11T04:44:56;95414.13;;;7.82;100.00
20077;BME280;12348;42.710;23.378;2023-05-11T04:47:23;95427.31;;;7.88;100.00
20077;BME280;12348;42.710;23.378;2023-05-11T04:49:50;95436.66;;;7.91;100.00
20077;BME280;12348;42.710;23.378;2023-05-11T04:52:17;95421.66;;;7.90;100.00
20077;BME280;12348;42.710;23.378;2023-05-11T04:54:45;95444.44;;;7.87;100.00
20077;BME280;12348;42.710;23.378;2023-05-11T04:57:12;95445.78;;;7.90;100.00
20077;BME280;12348;42.710;23.378;2023-05-11T04:59:39;95417.09;;;7.90;100.00
20077;BME280;12348;42.710;23.378;2023-05-11T05:02:06;95418.97;;;7.95;100.00
20077;BME280;12348;42.710;23.378;2023-05-11T05:04:33;95452.22;;;7.94;100.00
20077;BME280;12348;42.710;23.378;2023-05-11T05:07:00;95445.25;;;7.98;100.00
20077;BME280;12348;42.710;23.378;2023-05-11T05:09:26;95426.50;;;7.98;100.00
20077;BME280;12348;42.710;23.378;2023-05-11T05:11:55;95431.06;;;7.97;100.00
20077;BME280;12348;42.710;23.378;2023-05-11T05:14:22;95431.06;;;7.97;100.00
20077;BME280;12348;42.710;23.378;2023-05-11T05:16:48;95447.69;;;8.05;100.00
20077;BME280;12348;42.710;23.378;2023-05-11T05:19:15;95436.16;;;8.04;100.00
20077;BME280;12348;42.710;23.378;2023-05-11T05:21:42;95445.81;;;8.10;100.00
20077;BME280;12348;42.710;23.378;2023-05-11T05:24:09;95444.50;;;8.13;100.00
20077;BME280;12348;42.710;23.378;2023-05-11T05:26:37;95439.66;;;8.25;100.00
20077;BME280;12348;42.710;23.378;2023-05-11T05:29:05;95441.31;;;8.26;100.00
20077;BME280;12348;42.710;23.378;2023-05-11T05:31:32;95432.72;;;8.34;100.00
20077;BME280;12348;42.710;23.378;2023-05-11T05:33:59;95442.91;;;8.32;100.00
20077;BME280;12348;42.710;23.378;2023-05-11T05:36:25;95455.78;;;8.20;100.00
20077;BME280;12348;42.710;23.378;2023-05-11T05:38:52;95445.31;;;8.18;100.00
20077;BME280;12348;42.710;23.378;2023-05-11T05:41:19;95441.03;;;8.27;100.00
20077;BME280;12348;42.710;23.378;2023-05-11T05:43:47;95440.50;;;8.31;100.00
20077;BME280;12348;42.710;23.378;2023-05-11T05:46:17;95458.75;;;8.34;100.00
20077;BME280;12348;42.710;23.378;2023-05-11T05:48:44;95454.19;;;8.39;100.00
20077;BME280;12348;42.710;23.378;2023-05-11T05:51:11;95464.94;;;8.49;100.00
20077;BME280;12348;42.710;23.378;2023-05-11T05:53:38;95459.03;;;8.47;100.00
20077;BME280;12348;42.710;23.378;2023-05-11T05:56:05;95437.59;;;8.37;100.00
20077;BME280;12348;42.710;23.378;2023-05-11T05:58:32;95444.81;;;8.47;100.00
20077;BME280;12348;42.710;23.378;2023-05-11T06:00:59;95459.03;;;8.42;100.00
20077;BME280;12348;42.710;23.378;2023-05-11T06:03:27;95464.41;;;8.42;100.00
20077;BME280;12348;42.710;23.378;2023-05-11T06:05:54;95462.81;;;8.41;100.00
20077;BME280;12348;42.710;23.378;2023-05-11T06:08:21;95467.91;;;8.53;100.00
20077;BME280;12348;42.710;23.378;2023-05-11T06:10:48;95451.81;;;8.63;100.00
20077;BME280;12348;42.710;23.378;2023-05-11T06:13:15;95456.63;;;8.56;100.00
20077;BME280;12348;42.710;23.378;2023-05-11T06:15:42;95462.28;;;8.65;100.00
20077;BME280;12348;42.710;23.378;2023-05-11T06:18:09;95465.22;;;8.68;100.00
20077;BME280;12348;42.710;23.378;2023-05-11T06:20:37;95465.50;;;8.57;100.00
20077;BME280;12348;42.710;23.378;2023-05-11T06:23:04;95489.38;;;8.63;100.00
20077;BME280;12348;42.710;23.378;2023-05-11T06:25:33;95468.44;;;8.60;100.00
20077;BME280;12348;42.710;23.378;2023-05-11T06:28:02;95467.63;;;8.65;100.00
20077;BME280;12348;42.710;23.378;2023-05-11T06:30:29;95483.47;;;8.56;100.00
20077;BME280;12348;42.710;23.378;2023-05-11T06:32:56;95476.78;;;8.64;100.00
20077;BME280;12348;42.710;23.378;2023-05-11T06:35:24;95471.66;;;8.57;100.00
20077;BME280;12348;42.710;23.378;2023-05-11T06:37:54;95474.34;;;8.62;100.00
20077;BME280;12348;42.710;23.378;2023-05-11T06:40:21;95506.28;;;8.59;100.00
20077;BME280;12348;42.710;23.378;2023-05-11T06:42:48;95485.91;;;8.63;100.00
20077;BME280;12348;42.710;23.378;2023-05-11T06:45:14;95500.38;;;8.72;100.00
20077;BME280;12348;42.710;23.378;2023-05-11T06:47:42;95488.03;;;8.66;100.00
20077;BME280;12348;42.710;23.378;2023-05-11T06:50:09;95485.34;;;8.96;100.00
20077;BME280;12348;42.710;23.378;2023-05-11T06:52:36;95481.06;;;8.90;100.00
20077;BME280;12348;42.710;23.378;2023-05-11T06:55:05;95489.63;;;9.03;100.00
20077;BME280;12348;42.710;23.378;2023-05-11T06:57:32;95503.59;;;9.05;100.00
20077;BME280;12348;42.710;23.378;2023-05-11T06:59:59;95477.84;;;8.93;100.00
20077;BME280;12348;42.710;23.378;2023-05-11T07:02:26;95488.03;;;8.96;100.00
20077;BME280;12348;42.710;23.378;2023-05-11T07:04:52;95472.97;;;9.16;100.00
20077;BME280;12348;42.710;23.378;2023-05-11T07:07:19;95497.41;;;9.19;100.00
20077;BME280;12348;42.710;23.378;2023-05-11T07:09:47;95490.69;;;9.27;100.00
20077;BME280;12348;42.710;23.378;2023-05-11T07:12:15;95484.16;;;9.54;100.00
20077;BME280;12348;42.710;23.378;2023-05-11T07:14:42;95492.72;;;9.56;100.00
20077;BME280;12348;42.710;23.378;2023-05-11T07:17:09;95491.66;;;9.62;100.00
20077;BME280;12348;42.710;23.378;2023-05-11T07:19:35;95490.03;;;9.71;100.00
20077;BME280;12348;42.710;23.378;2023-05-11T07:22:02;95491.78;;;9.96;100.00
20077;BME280;12348;42.710;23.378;2023-05-11T07:24:30;95483.56;;;10.22;100.00
20077;BME280;12348;42.710;23.378;2023-05-11T07:26:57;95477.94;;;10.62;100.00
20077;BME280;12348;42.710;23.378;2023-05-11T07:29:25;95477.78;;;10.49;100.00
20077;BME280;12348;42.710;23.378;2023-05-11T07:31:52;95480.28;;;10.74;100.00
20077;BME280;12348;42.710;23.378;2023-05-11T07:34:19;95479.66;;;10.82;100.00
20077;BME280;12348;42.710;23.378;2023-05-11T07:36:45;95489.94;;;10.80;100.00
20077;BME280;12348;42.710;23.378;2023-05-11T07:39:12;95487.59;;;10.68;100.00
20077;BME280;12348;42.710;23.378;2023-05-11T07:41:41;95496.56;;;10.93;100.00
20077;BME280;12348;42.710;23.378;2023-05-11T07:44:08;95491.81;;;11.09;100.00
20077;BME280;12348;42.710;23.378;2023-05-11T07:46:37;95479.09;;;10.85;100.00
20077;BME280;12348;42.710;23.378;2023-05-11T07:49:03;95499.47;;;11.02;100.00
20077;BME280;12348;42.710;23.378;2023-05-11T07:51:30;95488.31;;;11.13;100.00
20077;BME280;12348;42.710;23.378;2023-05-11T07:53:57;95482.25;;;11.75;100.00
20077;BME280;12348;42.710;23.378;2023-05-11T07:56:24;95491.34;;;11.31;100.00
20077;BME280;12348;42.710;23.378;2023-05-11T07:58:51;95485.38;;;11.63;100.00
20077;BME280;12348;42.710;23.378;2023-05-11T08:01:18;95505.38;;;11.57;100.00
20077;BME280;12348;42.710;23.378;2023-05-11T08:03:46;95484.38;;;12.02;100.00
20077;BME280;12348;42.710;23.378;2023-05-11T08:06:13;95494.69;;;12.00;100.00
20077;BME280;12348;42.710;23.378;2023-05-11T08:08:40;95486.06;;;11.98;100.00
20077;BME280;12348;42.710;23.378;2023-05-11T08:11:07;95489.84;;;11.73;100.00
20077;BME280;12348;42.710;23.378;2023-05-11T08:13:34;95484.56;;;11.86;100.00
20077;BME280;12348;42.710;23.378;2023-05-11T08:16:01;95480.88;;;11.53;100.00
20077;BME280;12348;42.710;23.378;2023-05-11T08:18:28;95505.28;;;11.43;100.00
20077;BME280;12348;42.710;23.378;2023-05-11T08:20:57;95489.66;;;11.64;100.00
20077;BME280;12348;42.710;23.378;2023-05-11T08:23:23;95480.59;;;11.79;100.00
20077;BME280;12348;42.710;23.378;2023-05-11T08:25:51;95493.03;;;12.23;99.27
20077;BME280;12348;42.710;23.378;2023-05-11T08:28:18;95500.59;;;12.40;96.98
20077;BME280;12348;42.710;23.378;2023-05-11T08:30:46;95473.91;;;12.19;99.04
20077;BME280;12348;42.710;23.378;2023-05-11T08:33:18;95470.38;;;12.75;95.37
20077;BME280;12348;42.710;23.378;2023-05-11T08:35:45;95475.97;;;12.98;92.62
20077;BME280;12348;42.710;23.378;2023-05-11T08:38:14;95471.97;;;12.76;97.58
20077;BME280;12348;42.710;23.378;2023-05-11T08:40:41;95486.19;;;13.01;93.12
20077;BME280;12348;42.710;23.378;2023-05-11T08:43:12;95503.03;;;12.22;97.29
20077;BME280;12348;42.710;23.378;2023-05-11T08:45:40;95516.44;;;12.27;99.98
20077;BME280;12348;42.710;23.378;2023-05-11T08:48:08;95494.59;;;11.81;99.99
20077;BME280;12348;42.710;23.378;2023-05-11T08:50:36;95488.91;;;11.82;100.00
20077;BME280;12348;42.710;23.378;2023-05-11T08:53:02;95492.28;;;12.17;100.00
20077;BME280;12348;42.710;23.378;2023-05-11T08:55:32;95477.97;;;12.35;99.09
20077;BME280;12348;42.710;23.378;2023-05-11T08:58:00;95481.19;;;12.19;98.22
20077;BME280;12348;42.710;23.378;2023-05-11T09:00:28;95508.31;;;11.60;100.00
20077;BME280;12348;42.710;23.378;2023-05-11T09:02:56;95508.47;;;11.45;100.00
20077;BME280;12348;42.710;23.378;2023-05-11T09:05:24;95481.59;;;11.88;100.00
20077;BME280;12348;42.710;23.378;2023-05-11T09:07:54;95494.25;;;12.30;97.92
20077;BME280;12348;42.710;23.378;2023-05-11T09:10:22;95452.38;;;12.33;97.05
20077;BME280;12348;42.710;23.378;2023-05-11T09:12:51;95480.69;;;12.17;100.00
20077;BME280;12348;42.710;23.378;2023-05-11T09:15:18;95459.06;;;12.17;99.08
20077;BME280;12348;42.710;23.378;2023-05-11T09:17:44;95477.41;;;12.57;97.54
20077;BME280;12348;42.710;23.378;2023-05-11T09:20:13;95462.00;;;12.39;98.33
20077;BME280;12348;42.710;23.378;2023-05-11T09:22:42;95500.44;;;12.12;98.88
20077;BME280;12348;42.710;23.378;2023-05-11T09:25:10;95469.06;;;12.73;98.23
20077;BME280;12348;42.710;23.378;2023-05-11T09:27:40;95491.00;;;11.91;99.07
20077;BME280;12348;42.710;23.378;2023-05-11T09:30:13;95452.81;;;12.21;98.99
20077;BME280;12348;42.710;23.378;2023-05-11T09:32:48;95491.88;;;12.67;96.95
20077;BME280;12348;42.710;23.378;2023-05-11T09:35:19;95461.19;;;12.38;96.91
20077;BME280;12348;42.710;23.378;2023-05-11T09:37:56;95483.75;;;12.10;99.71
20077;BME280;12348;42.710;23.378;2023-05-11T09:40:23;95466.19;;;11.64;100.00
20077;BME280;12348;42.710;23.378;2023-05-11T09:42:51;95485.38;;;11.39;100.00
20077;BME280;12348;42.710;23.378;2023-05-11T09:45:38;95492.91;;;11.90;100.00
20077;BME280;12348;42.710;23.378;2023-05-11T09:48:07;95502.00;;;11.70;100.00
20077;BME280;12348;42.710;23.378;2023-05-11T09:50:38;95458.19;;;11.78;100.00
20077;BME280;12348;42.710;23.378;2023-05-11T09:53:05;95461.44;;;11.56;100.00
20077;BME280;12348;42.710;23.378;2023-05-11T09:55:32;95475.41;;;11.82;100.00
20077;BME280;12348;42.710;23.378;2023-05-11T09:57:59;95447.00;;;12.14;99.89
20077;BME280;12348;42.710;23.378;2023-05-11T10:00:26;95456.13;;;13.02;94.73
20077;BME280;12348;42.710;23.378;2023-05-11T10:03:01;95447.63;;;12.63;95.04
20077;BME280;12348;42.710;23.378;2023-05-11T10:05:29;95435.78;;;12.91;94.63
20077;BME280;12348;42.710;23.378;2023-05-11T10:08:01;95442.44;;;12.66;94.36
20077;BME280;12348;42.710;23.378;2023-05-11T10:10:29;95459.03;;;12.73;93.35
20077;BME280;12348;42.710;23.378;2023-05-11T10:12:57;95443.09;;;12.39;96.49
20077;BME280;12348;42.710;23.378;2023-05-11T10:15:26;95452.34;;;13.03;91.30
20077;BME280;12348;42.710;23.378;2023-05-11T10:17:54;95427.63;;;13.10;91.12
20077;BME280;12348;42.710;23.378;2023-05-11T10:20:24;95417.16;;;12.57;94.89
20077;BME280;12348;42.710;23.378;2023-05-11T10:22:52;95421.22;;;12.73;91.26
20077;BME280;12348;42.710;23.378;2023-05-11T10:25:21;95442.09;;;12.16;94.60
20077;BME280;12348;42.710;23.378;2023-05-11T10:27:48;95420.78;;;12.15;96.55
20077;BME280;12348;42.710;23.378;2023-05-11T10:30:15;95445.66;;;12.30;94.98
20077;BME280;12348;42.710;23.378;2023-05-11T10:32:43;95442.44;;;12.28;95.26
20077;BME280;12348;42.710;23.378;2023-05-11T10:35:11;95425.84;;;12.21;96.70
20077;BME280;12348;42.710;23.378;2023-05-11T10:37:40;95410.31;;;12.46;94.20
20077;BME280;12348;42.710;23.378;2023-05-11T10:40:09;95409.19;;;12.66;96.69
20077;BME280;12348;42.710;23.378;2023-05-11T10:45:44;95411.28;;;13.01;90.17
20077;BME280;12348;42.710;23.378;2023-05-11T10:51:25;95397.38;;;13.22;89.14
20077;BME280;12348;42.710;23.378;2023-05-11T10:54:07;95403.34;;;13.24;90.02
20077;BME280;12348;42.710;23.378;2023-05-11T10:56:51;95414.06;;;12.82;92.80
20077;BME280;12348;42.710;23.378;2023-05-11T10:59:44;95409.75;;;12.95;93.43
20077;BME280;12348;42.710;23.378;2023-05-11T11:02:18;95404.81;;;13.16;91.25
20077;BME280;12348;42.710;23.378;2023-05-11T11:04:50;95408.78;;;13.05;91.02
20077;BME280;12348;42.710;23.378;2023-05-11T11:07:17;95412.53;;;12.76;93.61
20077;BME280;12348;42.710;23.378;2023-05-11T11:09:55;95404.34;;;12.81;92.19
20077;BME280;12348;42.710;23.378;2023-05-11T11:12:22;95406.03;;;12.77;94.65
20077;BME280;12348;42.710;23.378;2023-05-11T11:14:56;95412.03;;;12.74;92.97
20077;BME280;12348;42.710;23.378;2023-05-11T11:17:26;95405.63;;;12.70;93.97
20077;BME280;12348;42.710;23.378;2023-05-11T11:19:53;95414.84;;;12.50;93.45
20077;BME280;12348;42.710;23.378;2023-05-11T11:22:43;95409.31;;;12.42;95.67
20077;BME280;12348;42.710;23.378;2023-05-11T11:25:13;95396.72;;;12.70;92.11
20077;BME280;12348;42.710;23.378;2023-05-11T11:27:54;95397.09;;;12.77;92.38
20077;BME280;12348;42.710;23.378;2023-05-11T11:30:23;95394.69;;;13.22;90.40
20077;BME280;12348;42.710;23.378;2023-05-11T11:32:51;95379.47;;;13.12;91.99
20077;BME280;12348;42.710;23.378;2023-05-11T11:35:44;95389.31;;;13.36;88.78
20077;BME280;12348;42.710;23.378;2023-05-11T11:38:12;95404.44;;;13.37;89.42
20077;BME280;12348;42.710;23.378;2023-05-11T11:40:42;95389.47;;;12.98;90.03
20077;BME280;12348;42.710;23.378;2023-05-11T11:43:09;95383.50;;;13.28;89.54
20077;BME280;12348;42.710;23.378;2023-05-11T11:45:38;95386.91;;;13.62;86.94
20077;BME280;12348;42.710;23.378;2023-05-11T11:48:10;95403.63;;;13.22;87.78
20077;BME280;12348;42.710;23.378;2023-05-11T11:50:39;95386.41;;;13.46;88.28
20077;BME280;12348;42.710;23.378;2023-05-11T11:53:09;95388.94;;;13.56;88.93
20077;BME280;12348;42.710;23.378;2023-05-11T11:55:49;95369.16;;;13.55;86.30
20077;BME280;12348;42.710;23.378;2023-05-11T12:01:22;95385.59;;;13.59;84.24
20077;BME280;12348;42.710;23.378;2023-05-11T12:04:08;95381.00;;;13.46;84.92
20077;BME280;12348;42.710;23.378;2023-05-11T12:06:37;95390.47;;;13.02;88.45
20077;BME280;12348;42.710;23.378;2023-05-11T12:09:04;95370.44;;;12.89;87.39
20077;BME280;12348;42.710;23.378;2023-05-11T12:11:32;95368.13;;;13.10;91.08
20077;BME280;12348;42.710;23.378;2023-05-11T12:14:00;95373.75;;;13.00;89.31
20077;BME280;12348;42.710;23.378;2023-05-11T12:16:27;95392.88;;;13.03;88.75
20077;BME280;12348;42.710;23.378;2023-05-11T12:18:55;95392.91;;;12.71;88.95
20077;BME280;12348;42.710;23.378;2023-05-11T12:21:23;95392.75;;;12.62;89.93
20077;BME280;12348;42.710;23.378;2023-05-11T12:23:52;95376.81;;;12.79;89.02
20077;BME280;12348;42.710;23.378;2023-05-11T12:26:20;95365.22;;;12.93;90.17
20077;BME280;12348;42.710;23.378;2023-05-11T12:28:49;95373.03;;;12.94;87.77
20077;BME280;12348;42.710;23.378;2023-05-11T12:31:17;95383.63;;;12.91;89.05
20077;BME280;12348;42.710;23.378;2023-05-11T12:33:44;95358.41;;;12.95;88.81
20077;BME280;12348;42.710;23.378;2023-05-11T12:36:13;95337.84;;;13.41;88.39
20077;BME280;12348;42.710;23.378;2023-05-11T12:38:44;95345.22;;;13.21;89.46
20077;BME280;12348;42.710;23.378;2023-05-11T12:41:18;95334.94;;;13.37;88.24
20077;BME280;12348;42.710;23.378;2023-05-11T12:43:46;95354.22;;;13.17;88.44
20077;BME280;12348;42.710;23.378;2023-05-11T12:46:16;95344.66;;;13.24;89.33
20077;BME280;12348;42.710;23.378;2023-05-11T12:48:43;95328.47;;;12.92;90.93
20077;BME280;12348;42.710;23.378;2023-05-11T12:51:10;95335.63;;;13.15;89.40
20077;BME280;12348;42.710;23.378;2023-05-11T12:53:38;95324.81;;;13.15;89.92
20077;BME280;12348;42.710;23.378;2023-05-11T12:56:05;95330.22;;;13.15;88.59
20077;BME280;12348;42.710;23.378;2023-05-11T12:58:37;95323.59;;;13.07;89.91
20077;BME280;12348;42.710;23.378;2023-05-11T13:01:05;95334.19;;;13.18;90.78
20077;BME280;12348;42.710;23.378;2023-05-11T13:03:35;95317.59;;;13.24;90.83
20077;BME280;12348;42.710;23.378;2023-05-11T13:06:06;95333.44;;;13.45;89.40
20077;BME280;12348;42.710;23.378;2023-05-11T13:08:33;95326.59;;;13.06;89.59